sensor_id;sensor_type;location;lat;lon;timestamp;pressure;altitude;pressure_sealevel;temperature;humidity
44001;BME280;29660;42.892;24.710;2022-12-16T00:00:12;96475.69;;;1.50;100.00
44001;BME280;29660;42.892;24.710;2022-12-16T00:05:34;96452.50;;;1.46;100.00
44001;BME280;29660;42.892;24.710;2022-12-16T00:10:43;96675.75;;;3.03;100.00
44001;BME280;29660;42.892;24.710;2022-12-16T00:15:55;96508.56;;;1.91;100.00
44001;BME280;29660;42.892;24.710;2022-12-16T00:20:58;96448.56;;;1.49;100.00
44001;BME280;29660;42.892;24.710;2022-12-16T00:26:00;96743.31;;;3.36;100.00
44001;BME280;29660;42.892;24.710;2022-12-16T00:31:02;96767.59;;;3.38;100.00
44001;BME280;29660;42.892;24.710;2022-12-16T00:36:05;96520.44;;;1.77;100.00
44001;BME280;29660;42.892;24.710;2022-12-16T00:41:07;96523.06;;;1.77;100.00
44001;BME280;29660;42.892;24.710;2022-12-16T00:46:28;96490.78;;;1.59;100.00
44001;BME280;29660;42.892;24.710;2022-12-16T00:51:30;96752.91;;;3.26;100.00
44001;BME280;29660;42.892;24.710;2022-12-16T00:56:32;96465.78;;;1.40;100.00
44001;BME280;29660;42.892;24.710;2022-12-16T01:01:35;96771.16;;;3.27;100.00
44001;BME280;29660;42.892;24.710;2022-12-16T01:06:37;96715.59;;;2.90;100.00
44001;BME280;29660;42.892;24.710;2022-12-16T01:11:39;96766.63;;;3.23;100.00
44001;BME280;29660;42.892;24.710;2022-12-16T01:16:41;96751.16;;;3.09;100.00
44001;BME280;29660;42.892;24.710;2022-12-16T01:21:43;96753.03;;;3.14;100.00
44001;BME280;29660;42.892;24.710;2022-12-16T01:26:45;96714.38;;;2.98;100.00
44001;BME280;29660;42.892;24.710;2022-12-16T01:31:47;96726.53;;;3.20;100.00
44001;BME280;29660;42.892;24.710;2022-12-16T01:36:49;96405.34;;;1.18;100.00
44001;BME280;29660;42.892;24.710;2022-12-16T01:41:51;96669.91;;;3.01;100.00
44001;BME280;29660;42.892;24.710;2022-12-16T01:46:59;96410.38;;;1.41;100.00
44001;BME280;29660;42.892;24.710;2022-12-16T01:52:06;96610.03;;;2.69;100.00
44001;BME280;29660;42.892;24.710;2022-12-16T01:57:13;96392.19;;;1.35;100.00
44001;BME280;29660;42.892;24.710;2022-12-16T02:02:16;96404.78;;;1.55;100.00
44001;BME280;29660;42.892;24.710;2022-12-16T02:07:18;96364.69;;;1.42;100.00
44001;BME280;29660;42.892;24.710;2022-12-16T02:12:39;96687.28;;;3.24;100.00
44001;BME280;29660;42.892;24.710;2022-12-16T02:18:02;96580.53;;;2.67;100.00
44001;BME280;29660;42.892;24.710;2022-12-16T02:23:48;96608.50;;;2.95;100.00
44001;BME280;29660;42.892;24.710;2022-12-16T02:29:11;96688.97;;;3.30;100.00
44001;BME280;29660;42.892;24.710;2022-12-16T02:39:43;96351.66;;;1.31;100.00
44001;BME280;29660;42.892;24.710;2022-12-16T02:45:05;96639.69;;;3.09;100.00
44001;BME280;29660;42.892;24.710;2022-12-16T02:50:22;96426.97;;;1.86;100.00
44001;BME280;29660;42.892;24.710;2022-12-16T03:06:14;96598.13;;;2.89;100.00
44001;BME280;29660;42.892;24.710;2022-12-16T03:11:19;96408.22;;;1.77;100.00
44001;BME280;29660;42.892;24.710;2022-12-16T03:16:29;96463.91;;;1.96;100.00
44001;BME280;29660;42.892;24.710;2022-12-16T03:21:54;96649.84;;;3.22;100.00
44001;BME280;29660;42.892;24.710;2022-12-16T03:27:17;96671.53;;;3.29;100.00
44001;BME280;29660;42.892;24.710;2022-12-16T03:32:51;96658.13;;;3.31;100.00
44001;BME280;29660;42.892;24.710;2022-12-16T03:37:56;96646.72;;;3.25;100.00
44001;BME280;29660;42.892;24.710;2022-12-16T03:43:00;96649.13;;;3.27;100.00
44001;BME280;29660;42.892;24.710;2022-12-16T03:48:06;96430.03;;;1.78;100.00
44001;BME280;29660;42.892;24.710;2022-12-16T03:53:09;96619.91;;;3.06;100.00
44001;BME280;29660;42.892;24.710;2022-12-16T03:58:11;96313.66;;;1.16;100.00
44001;BME280;29660;42.892;24.710;2022-12-16T04:03:13;96683.13;;;3.55;100.00
44001;BME280;29660;42.892;24.710;2022-12-16T04:08:15;96654.59;;;3.47;100.00
44001;BME280;29660;42.892;24.710;2022-12-16T04:13:17;96320.03;;;1.42;100.00
44001;BME280;29660;42.892;24.710;2022-12-16T04:18:39;96632.16;;;3.44;100.00
44001;BME280;29660;42.892;24.710;2022-12-16T04:24:00;96606.97;;;3.27;100.00
44001;BME280;29660;42.892;24.710;2022-12-16T04:29:21;96637.22;;;3.51;100.00
44001;BME280;29660;42.892;24.710;2022-12-16T04:34:23;96405.78;;;2.19;100.00
44001;BME280;29660;42.892;24.710;2022-12-16T04:39:28;96363.50;;;1.99;100.00
44001;BME280;29660;42.892;24.710;2022-12-16T04:44:48;96569.38;;;3.41;100.00
44001;BME280;29660;42.892;24.710;2022-12-16T04:50:09;96423.09;;;2.42;100.00
44001;BME280;29660;42.892;24.710;2022-12-16T04:55:30;96485.78;;;2.73;100.00
44001;BME280;29660;42.892;24.710;2022-12-16T05:00:50;96333.63;;;1.83;100.00
44001;BME280;29660;42.892;24.710;2022-12-16T05:06:12;96379.88;;;2.06;100.00
44001;BME280;29660;42.892;24.710;2022-12-16T05:11:32;96658.59;;;3.82;100.00
44001;BME280;29660;42.892;24.710;2022-12-16T05:16:53;96648.34;;;3.85;100.00
44001;BME280;29660;42.892;24.710;2022-12-16T05:22:14;96636.47;;;3.88;100.00
44001;BME280;29660;42.892;24.710;2022-12-16T05:27:35;96582.91;;;3.50;100.00
44001;BME280;29660;42.892;24.710;2022-12-16T05:32:55;96228.22;;;1.31;100.00
44001;BME280;29660;42.892;24.710;2022-12-16T05:38:16;96638.19;;;3.72;100.00
44001;BME280;29660;42.892;24.710;2022-12-16T05:43:36;96450.94;;;2.60;100.00
44001;BME280;29660;42.892;24.710;2022-12-16T05:48:56;96672.31;;;3.84;100.00
44001;BME280;29660;42.892;24.710;2022-12-16T05:54:17;96655.03;;;3.98;100.00
44001;BME280;29660;42.892;24.710;2022-12-16T05:59:38;96403.63;;;2.43;100.00
44001;BME280;29660;42.892;24.710;2022-12-16T06:04:58;96630.09;;;3.84;100.00
44001;BME280;29660;42.892;24.710;2022-12-16T06:10:19;96430.31;;;2.52;100.00
44001;BME280;29660;42.892;24.710;2022-12-16T06:15:39;96678.25;;;4.01;100.00
44001;BME280;29660;42.892;24.710;2022-12-16T06:21:04;96700.09;;;4.29;100.00
44001;BME280;29660;42.892;24.710;2022-12-16T06:26:25;96331.75;;;2.06;100.00
44001;BME280;29660;42.892;24.710;2022-12-16T06:31:45;96683.25;;;4.35;100.00
44001;BME280;29660;42.892;24.710;2022-12-16T06:37:06;96741.59;;;4.76;100.00
44001;BME280;29660;42.892;24.710;2022-12-16T06:42:26;96756.00;;;5.00;100.00
44001;BME280;29660;42.892;24.710;2022-12-16T06:47:47;96729.59;;;4.58;100.00
44001;BME280;29660;42.892;24.710;2022-12-16T06:53:07;96731.44;;;4.57;100.00
44001;BME280;29660;42.892;24.710;2022-12-16T06:58:28;96775.81;;;4.98;100.00
44001;BME280;29660;42.892;24.710;2022-12-16T07:03:48;96712.75;;;4.64;100.00
44001;BME280;29660;42.892;24.710;2022-12-16T07:09:09;96799.16;;;5.16;100.00
44001;BME280;29660;42.892;24.710;2022-12-16T07:14:30;96513.06;;;3.53;100.00
44001;BME280;29660;42.892;24.710;2022-12-16T07:19:50;96738.81;;;4.98;100.00
44001;BME280;29660;42.892;24.710;2022-12-16T07:25:10;96808.09;;;5.62;100.00
44001;BME280;29660;42.892;24.710;2022-12-16T07:30:31;96801.19;;;5.56;100.00
44001;BME280;29660;42.892;24.710;2022-12-16T07:35:52;96786.44;;;5.76;100.00
44001;BME280;29660;42.892;24.710;2022-12-16T07:41:13;96685.00;;;5.34;100.00
44001;BME280;29660;42.892;24.710;2022-12-16T07:46:36;96777.00;;;6.21;100.00
44001;BME280;29660;42.892;24.710;2022-12-16T07:51:56;96289.13;;;3.26;100.00
44001;BME280;29660;42.892;24.710;2022-12-16T07:57:16;96495.66;;;4.72;100.00
44001;BME280;29660;42.892;24.710;2022-12-16T08:02:37;96545.41;;;5.21;100.00
44001;BME280;29660;42.892;24.710;2022-12-16T08:07:58;96716.63;;;6.28;100.00
44001;BME280;29660;42.892;24.710;2022-12-16T08:13:18;96491.19;;;5.13;100.00
44001;BME280;29660;42.892;24.710;2022-12-16T08:18:39;96695.41;;;6.58;100.00
44001;BME280;29660;42.892;24.710;2022-12-16T08:24:00;96484.59;;;5.47;100.00
44001;BME280;29660;42.892;24.710;2022-12-16T08:29:21;96358.53;;;4.91;100.00
44001;BME280;29660;42.892;24.710;2022-12-16T08:34:46;96531.50;;;6.36;100.00
44001;BME280;29660;42.892;24.710;2022-12-16T08:40:07;96716.66;;;7.78;100.00
44001;BME280;29660;42.892;24.710;2022-12-16T08:45:36;96739.28;;;8.15;100.00
44001;BME280;29660;42.892;24.710;2022-12-16T08:51:15;96695.81;;;8.00;100.00
44001;BME280;29660;42.892;24.710;2022-12-16T08:56:36;96453.09;;;6.85;100.00
44001;BME280;29660;42.892;24.710;2022-12-16T09:01:56;96696.97;;;8.57;100.00
44001;BME280;29660;42.892;24.710;2022-12-16T09:07:17;96603.56;;;8.40;100.00
44001;BME280;29660;42.892;24.710;2022-12-16T09:12:38;96619.09;;;8.81;100.00
44001;BME280;29660;42.892;24.710;2022-12-16T09:17:58;96692.50;;;9.63;100.00
44001;BME280;29660;42.892;24.710;2022-12-16T09:23:26;96504.31;;;8.74;100.00
44001;BME280;29660;42.892;24.710;2022-12-16T09:28:47;96680.53;;;10.17;100.00
44001;BME280;29660;42.892;24.710;2022-12-16T09:34:07;96659.50;;;10.34;100.00
44001;BME280;29660;42.892;24.710;2022-12-16T09:39:28;96678.72;;;10.77;100.00
44001;BME280;29660;42.892;24.710;2022-12-16T09:50:23;96414.28;;;9.93;100.00
44001;BME280;29660;42.892;24.710;2022-12-16T09:56:09;96404.03;;;10.86;100.00
44001;BME280;29660;42.892;24.710;2022-12-16T10:01:35;96605.22;;;13.05;94.32
44001;BME280;29660;42.892;24.710;2022-12-16T10:06:58;96443.81;;;12.95;85.27
44001;BME280;29660;42.892;24.710;2022-12-16T10:17:52;96302.88;;;13.08;81.53
44001;BME280;29660;42.892;24.710;2022-12-16T10:23:33;96452.25;;;14.52;78.13
44001;BME280;29660;42.892;24.710;2022-12-16T10:29:11;96394.19;;;14.68;68.51
44001;BME280;29660;42.892;24.710;2022-12-16T10:34:34;96559.22;;;16.09;67.40
44001;BME280;29660;42.892;24.710;2022-12-16T10:39:57;96389.84;;;15.30;68.64
44001;BME280;29660;42.892;24.710;2022-12-16T10:45:35;96607.03;;;17.06;68.06
44001;BME280;29660;42.892;24.710;2022-12-16T10:50:59;96418.09;;;16.06;69.11
44001;BME280;29660;42.892;24.710;2022-12-16T11:01:57;96486.34;;;17.00;63.09
44001;BME280;29660;42.892;24.710;2022-12-16T11:13:14;96231.34;;;15.79;59.25
44001;BME280;29660;42.892;24.710;2022-12-16T11:18:48;96629.44;;;18.44;59.72
44001;BME280;29660;42.892;24.710;2022-12-16T11:24:16;96388.75;;;17.18;58.74
44001;BME280;29660;42.892;24.710;2022-12-16T11:35:18;96360.06;;;17.26;54.41
44001;BME280;29660;42.892;24.710;2022-12-16T11:40:39;96600.81;;;18.86;59.25
44001;BME280;29660;42.892;24.710;2022-12-16T11:46:02;96575.88;;;18.77;57.91
44001;BME280;29660;42.892;24.710;2022-12-16T11:51:28;96625.34;;;19.13;53.40
44001;BME280;29660;42.892;24.710;2022-12-16T11:56:49;96626.22;;;19.17;53.41
44001;BME280;29660;42.892;24.710;2022-12-16T12:02:48;96550.78;;;18.77;55.18
44001;BME280;29660;42.892;24.710;2022-12-16T12:08:01;96638.13;;;19.32;52.01
44001;BME280;29660;42.892;24.710;2022-12-16T12:19:16;96646.34;;;19.35;53.13
44001;BME280;29660;42.892;24.710;2022-12-16T12:24:52;96433.47;;;17.95;52.57
44001;BME280;29660;42.892;24.710;2022-12-16T12:30:18;96461.00;;;18.17;53.93
44001;BME280;29660;42.892;24.710;2022-12-16T12:41:26;96529.34;;;18.68;52.56
44001;BME280;29660;42.892;24.710;2022-12-16T12:46:56;96440.47;;;18.12;53.78
44001;BME280;29660;42.892;24.710;2022-12-16T12:57:41;96520.78;;;18.66;52.59
44001;BME280;29660;42.892;24.710;2022-12-16T13:03:06;96669.41;;;19.65;54.56
44001;BME280;29660;42.892;24.710;2022-12-16T13:14:51;96651.28;;;19.65;52.23
44001;BME280;29660;42.892;24.710;2022-12-16T13:25:51;96638.69;;;19.57;51.65
44001;BME280;29660;42.892;24.710;2022-12-16T13:31:12;96623.63;;;19.40;52.42
44001;BME280;29660;42.892;24.710;2022-12-16T13:36:33;96601.50;;;19.34;51.76
44001;BME280;29660;42.892;24.710;2022-12-16T13:41:59;96644.09;;;19.57;52.45
44001;BME280;29660;42.892;24.710;2022-12-16T13:47:57;96583.41;;;19.19;52.39
44001;BME280;29660;42.892;24.710;2022-12-16T13:53:14;96422.09;;;18.02;54.85
44001;BME280;29660;42.892;24.710;2022-12-16T13:58:38;96639.78;;;19.36;53.63
44001;BME280;29660;42.892;24.710;2022-12-16T14:04:00;96630.34;;;19.11;53.51
44001;BME280;29660;42.892;24.710;2022-12-16T14:09:38;96623.22;;;18.87;52.96
44001;BME280;29660;42.892;24.710;2022-12-16T14:15:10;96540.06;;;18.17;53.43
44001;BME280;29660;42.892;24.710;2022-12-16T14:20:41;96602.25;;;18.52;54.52
44001;BME280;29660;42.892;24.710;2022-12-16T14:26:03;96632.47;;;18.42;56.50
44001;BME280;29660;42.892;24.710;2022-12-16T14:36:51;96633.44;;;18.06;58.74
44001;BME280;29660;42.892;24.710;2022-12-16T14:42:30;96623.84;;;17.68;60.90
44001;BME280;29660;42.892;24.710;2022-12-16T14:47:51;96668.28;;;17.58;64.84
44001;BME280;29660;42.892;24.710;2022-12-16T14:53:16;96675.63;;;17.33;67.45
44001;BME280;29660;42.892;24.710;2022-12-16T14:58:37;96669.97;;;16.89;70.54
44001;BME280;29660;42.892;24.710;2022-12-16T15:03:59;96483.75;;;15.27;72.61
44001;BME280;29660;42.892;24.710;2022-12-16T15:09:27;96454.28;;;14.76;74.52
44001;BME280;29660;42.892;24.710;2022-12-16T15:14:49;96638.56;;;15.61;77.99
44001;BME280;29660;42.892;24.710;2022-12-16T15:20:42;96719.75;;;15.75;81.31
44001;BME280;29660;42.892;24.710;2022-12-16T15:26:05;96732.41;;;15.45;83.39
44001;BME280;29660;42.892;24.710;2022-12-16T15:31:31;96495.59;;;13.78;84.40
44001;BME280;29660;42.892;24.710;2022-12-16T15:36:52;96530.91;;;13.71;87.09
44001;BME280;29660;42.892;24.710;2022-12-16T15:42:21;96473.56;;;13.11;87.69
44001;BME280;29660;42.892;24.710;2022-12-16T15:47:48;96467.91;;;12.95;89.00
44001;BME280;29660;42.892;24.710;2022-12-16T15:58:47;96710.47;;;14.06;93.36
44001;BME280;29660;42.892;24.710;2022-12-16T16:04:27;96742.31;;;13.98;94.26
44001;BME280;29660;42.892;24.710;2022-12-16T16:09:48;96619.59;;;13.09;94.21
44001;BME280;29660;42.892;24.710;2022-12-16T16:15:11;96711.06;;;13.59;94.96
44001;BME280;29660;42.892;24.710;2022-12-16T16:20:32;96534.78;;;12.21;96.27
44001;BME280;29660;42.892;24.710;2022-12-16T16:25:53;96478.41;;;11.77;96.68
44001;BME280;29660;42.892;24.710;2022-12-16T16:31:14;96699.81;;;12.91;97.57
44001;BME280;29660;42.892;24.710;2022-12-16T16:36:35;96462.13;;;11.34;99.18
44001;BME280;29660;42.892;24.710;2022-12-16T16:41:55;96695.63;;;12.68;100.00
44001;BME280;29660;42.892;24.710;2022-12-16T16:47:16;96729.19;;;12.74;100.00
44001;BME280;29660;42.892;24.710;2022-12-16T16:52:36;96739.38;;;12.72;100.00
44001;BME280;29660;42.892;24.710;2022-12-16T16:57:57;96592.56;;;11.63;100.00
44001;BME280;29660;42.892;24.710;2022-12-16T17:03:18;96532.63;;;11.11;100.00
44001;BME280;29660;42.892;24.710;2022-12-16T17:08:58;96704.97;;;12.03;100.00
44001;BME280;29660;42.892;24.710;2022-12-16T17:14:21;96757.34;;;12.26;100.00
44001;BME280;29660;42.892;24.710;2022-12-16T17:19:42;96757.25;;;12.18;100.00
44001;BME280;29660;42.892;24.710;2022-12-16T17:25:03;96773.25;;;12.09;100.00
44001;BME280;29660;42.892;24.710;2022-12-16T17:30:24;96537.47;;;10.59;100.00
44001;BME280;29660;42.892;24.710;2022-12-16T17:35:49;96492.63;;;10.19;100.00
44001;BME280;29660;42.892;24.710;2022-12-16T17:41:10;96733.13;;;11.59;100.00
44001;BME280;29660;42.892;24.710;2022-12-16T17:46:30;96662.31;;;10.98;100.00
44001;BME280;29660;42.892;24.710;2022-12-16T17:51:51;96678.41;;;11.06;100.00
44001;BME280;29660;42.892;24.710;2022-12-16T17:57:12;96714.09;;;11.11;100.00
44001;BME280;29660;42.892;24.710;2022-12-16T18:02:33;96468.34;;;9.47;100.00
44001;BME280;29660;42.892;24.710;2022-12-16T18:07:53;96725.34;;;11.07;100.00
44001;BME280;29660;42.892;24.710;2022-12-16T18:13:14;96704.41;;;10.87;100.00
44001;BME280;29660;42.892;24.710;2022-12-16T18:18:35;96731.38;;;10.99;100.00
44001;BME280;29660;42.892;24.710;2022-12-16T18:23:56;96482.63;;;9.37;100.00
44001;BME280;29660;42.892;24.710;2022-12-16T18:29:17;96571.88;;;9.81;100.00
44001;BME280;29660;42.892;24.710;2022-12-16T18:34:57;96432.88;;;8.86;100.00
44001;BME280;29660;42.892;24.710;2022-12-16T18:40:18;96735.63;;;10.73;100.00
44001;BME280;29660;42.892;24.710;2022-12-16T18:45:38;96536.41;;;9.34;100.00
44001;BME280;29660;42.892;24.710;2022-12-16T18:51:18;96710.41;;;10.32;100.00
44001;BME280;29660;42.892;24.710;2022-12-16T18:56:38;96739.13;;;10.54;100.00
44001;BME280;29660;42.892;24.710;2022-12-16T19:01:59;96476.72;;;8.70;100.00
44001;BME280;29660;42.892;24.710;2022-12-16T19:07:19;96464.72;;;8.53;100.00
44001;BME280;29660;42.892;24.710;2022-12-16T19:12:39;96682.16;;;9.80;100.00
44001;BME280;29660;42.892;24.710;2022-12-16T19:18:00;96411.53;;;7.92;100.00
44001;BME280;29660;42.892;24.710;2022-12-16T19:23:20;96534.91;;;8.71;100.00
44001;BME280;29660;42.892;24.710;2022-12-16T19:28:41;96462.97;;;8.20;100.00
44001;BME280;29660;42.892;24.710;2022-12-16T19:34:02;96555.72;;;8.64;100.00
44001;BME280;29660;42.892;24.710;2022-12-16T19:39:22;96683.50;;;9.58;100.00
44001;BME280;29660;42.892;24.710;2022-12-16T19:44:43;96455.34;;;7.89;100.00
44001;BME280;29660;42.892;24.710;2022-12-16T19:50:04;96406.00;;;7.64;100.00
44001;BME280;29660;42.892;24.710;2022-12-16T19:55:24;96741.75;;;9.84;100.00
44001;BME280;29660;42.892;24.710;2022-12-16T20:00:45;96455.13;;;7.85;100.00
44001;BME280;29660;42.892;24.710;2022-12-16T20:06:07;96722.19;;;9.56;100.00
44001;BME280;29660;42.892;24.710;2022-12-16T20:11:27;96799.78;;;9.87;100.00
44001;BME280;29660;42.892;24.710;2022-12-16T20:16:48;96552.59;;;8.38;100.00
44001;BME280;29660;42.892;24.710;2022-12-16T20:22:08;96519.91;;;8.14;100.00
44001;BME280;29660;42.892;24.710;2022-12-16T20:27:32;96471.34;;;7.84;100.00
44001;BME280;29660;42.892;24.710;2022-12-16T20:33:13;96688.75;;;9.26;100.00
44001;BME280;29660;42.892;24.710;2022-12-16T20:38:34;96721.13;;;9.33;100.00
44001;BME280;29660;42.892;24.710;2022-12-16T20:43:54;96429.31;;;7.38;100.00
44001;BME280;29660;42.892;24.710;2022-12-16T20:49:15;96739.22;;;9.31;100.00
44001;BME280;29660;42.892;24.710;2022-12-16T20:54:36;96786.47;;;9.44;100.00
44001;BME280;29660;42.892;24.710;2022-12-16T20:59:56;96798.38;;;9.52;100.00
44001;BME280;29660;42.892;24.710;2022-12-16T21:05:17;96799.09;;;9.57;100.00
44001;BME280;29660;42.892;24.710;2022-12-16T21:10:38;96514.78;;;7.93;100.00
44001;BME280;29660;42.892;24.710;2022-12-16T21:16:00;96769.06;;;9.52;100.00
44001;BME280;29660;42.892;24.710;2022-12-16T21:21:21;96705.03;;;9.00;100.00
44001;BME280;29660;42.892;24.710;2022-12-16T21:26:42;96771.00;;;9.46;100.00
44001;BME280;29660;42.892;24.710;2022-12-16T21:32:03;96497.00;;;7.65;100.00
44001;BME280;29660;42.892;24.710;2022-12-16T21:37:23;96772.19;;;9.35;100.00
44001;BME280;29660;42.892;24.710;2022-12-16T21:42:43;96528.00;;;7.74;100.00
44001;BME280;29660;42.892;24.710;2022-12-16T21:48:04;96805.56;;;9.51;100.00
44001;BME280;29660;42.892;24.710;2022-12-16T21:53:24;96591.31;;;8.15;100.00
44001;BME280;29660;42.892;24.710;2022-12-16T21:59:04;96798.00;;;9.34;100.00
44001;BME280;29660;42.892;24.710;2022-12-16T22:04:24;96716.69;;;9.04;100.00
44001;BME280;29660;42.892;24.710;2022-12-16T22:09:45;96626.19;;;8.32;100.00
44001;BME280;29660;42.892;24.710;2022-12-16T22:15:07;96773.66;;;9.46;100.00
44001;BME280;29660;42.892;24.710;2022-12-16T22:20:27;96773.09;;;9.49;100.00
44001;BME280;29660;42.892;24.710;2022-12-16T22:25:54;96500.63;;;7.74;100.00
44001;BME280;29660;42.892;24.710;2022-12-16T22:31:15;96419.94;;;7.22;100.00
44001;BME280;29660;42.892;24.710;2022-12-16T22:36:36;96764.28;;;9.30;100.00
44001;BME280;29660;42.892;24.710;2022-12-16T22:41:58;96755.47;;;9.53;100.00
44001;BME280;29660;42.892;24.710;2022-12-16T22:47:19;96637.72;;;8.76;100.00
44001;BME280;29660;42.892;24.710;2022-12-16T22:52:40;96715.28;;;9.31;100.00
44001;BME280;29660;42.892;24.710;2022-12-16T22:58:08;96489.38;;;7.87;100.00
44001;BME280;29660;42.892;24.710;2022-12-16T23:03:29;96461.78;;;7.59;100.00
44001;BME280;29660;42.892;24.710;2022-12-16T23:08:49;96464.13;;;7.60;100.00
44001;BME280;29660;42.892;24.710;2022-12-16T23:14:10;96439.94;;;7.38;100.00
44001;BME280;29660;42.892;24.710;2022-12-16T23:19:49;96687.47;;;8.99;100.00
44001;BME280;29660;42.892;24.710;2022-12-16T23:25:10;96677.69;;;8.95;100.00
44001;BME280;29660;42.892;24.710;2022-12-16T23:30:30;96411.19;;;7.21;100.00
44001;BME280;29660;42.892;24.710;2022-12-16T23:35:50;96430.81;;;7.20;100.00
44001;BME280;29660;42.892;24.710;2022-12-16T23:41:11;96464.16;;;7.31;100.00
44001;BME280;29660;42.892;24.710;2022-12-16T23:46:31;96455.38;;;7.31;100.00
44001;BME280;29660;42.892;24.710;2022-12-16T23:51:52;96720.63;;;9.07;100.00
44001;BME280;29660;42.892;24.710;2022-12-16T23:57:13;96438.56;;;7.70;100.00
